createdAt,value
2022-10-18T00:00:54.359Z,4.07
2022-10-18T00:03:22.391Z,4.00
2022-10-18T00:05:50.099Z,4.27
2022-10-18T00:08:18.744Z,3.03
2022-10-18T00:10:46.611Z,3.40
2022-10-18T00:13:13.566Z,3.80
2022-10-18T00:15:40.411Z,3.50
2022-10-18T00:18:07.443Z,3.73
2022-10-18T00:20:34.252Z,3.67
2022-10-18T00:23:01.103Z,3.07
2022-10-18T00:25:28.117Z,3.87
2022-10-18T00:27:55.021Z,3.80
2022-10-18T00:30:22.135Z,4.03
2022-10-18T00:32:48.994Z,3.77
2022-10-18T00:35:15.883Z,4.77
2022-10-18T00:37:42.860Z,4.40
2022-10-18T00:40:10.678Z,4.93
2022-10-18T00:42:38.369Z,4.77
2022-10-18T00:45:23.107Z,5.70
2022-10-18T00:48:00.964Z,5.03
2022-10-18T00:50:33.589Z,6.13
2022-10-18T00:53:06.500Z,6.20
2022-10-18T00:55:34.623Z,5.87
2022-10-18T00:58:03.748Z,6.07
2022-10-18T01:00:30.967Z,7.23
2022-10-18T01:02:59.367Z,6.13
2022-10-18T01:05:26.924Z,6.73
2022-10-18T01:08:12.737Z,6.30
2022-10-18T01:10:51.563Z,6.00
2022-10-18T01:13:49.088Z,6.00
2022-10-18T01:16:32.454Z,5.93
2022-10-18T01:19:39.098Z,5.57
2022-10-18T01:22:14.982Z,5.53
2022-10-18T01:27:48.816Z,5.97
2022-10-18T01:30:50.429Z,5.87
2022-10-18T01:33:34.788Z,4.47
2022-10-18T01:36:23.631Z,5.77
2022-10-18T01:38:56.915Z,5.80
2022-10-18T01:41:26.679Z,5.77
2022-10-18T01:44:00.770Z,4.50
2022-10-18T01:46:29.884Z,4.07
2022-10-18T01:48:58.379Z,4.30
2022-10-18T01:51:32.014Z,4.70
2022-10-18T01:53:59.498Z,5.93
2022-10-18T01:56:58.324Z,5.67
2022-10-18T01:59:43.430Z,5.50
2022-10-18T02:02:25.048Z,4.97
2022-10-18T02:05:46.394Z,5.40
2022-10-18T02:08:38.360Z,4.60
2022-10-18T02:11:13.136Z,6.13
2022-10-18T02:13:47.965Z,5.03
2022-10-18T02:16:21.839Z,4.37
2022-10-18T02:19:05.666Z,5.13
2022-10-18T02:21:33.590Z,5.27
2022-10-18T02:24:02.999Z,5.90
2022-10-18T02:26:30.344Z,4.60
2022-10-18T02:28:57.351Z,4.97
2022-10-18T02:31:28.907Z,5.90
2022-10-18T02:34:21.876Z,5.90
2022-10-18T02:36:58.132Z,4.63
2022-10-18T02:39:47.606Z,5.20
2022-10-18T02:42:16.079Z,5.97
2022-10-18T02:44:43.245Z,5.90
2022-10-18T02:47:12.172Z,5.03
2022-10-18T02:49:39.064Z,6.20
2022-10-18T02:52:05.989Z,7.57
2022-10-18T02:54:32.879Z,6.33
2022-10-18T02:56:59.732Z,6.93
2022-10-18T02:59:26.559Z,7.40
2022-10-18T03:01:53.467Z,6.97
2022-10-18T03:04:20.411Z,5.37
2022-10-18T03:06:47.257Z,5.97
2022-10-18T03:09:14.168Z,5.53
2022-10-18T03:11:41.102Z,4.77
2022-10-18T03:14:07.912Z,5.33
2022-10-18T03:16:34.843Z,5.23
2022-10-18T03:19:01.805Z,4.60
2022-10-18T03:21:28.815Z,4.20
2022-10-18T03:23:56.081Z,5.07
2022-10-18T03:26:22.950Z,5.20
2022-10-18T03:28:49.887Z,4.00
2022-10-18T03:31:17.201Z,3.93
2022-10-18T03:33:44.762Z,2.80
2022-10-18T03:36:12.132Z,3.50
2022-10-18T03:38:38.982Z,4.43
2022-10-18T03:41:06.235Z,3.20
2022-10-18T03:43:33.070Z,2.30
2022-10-18T03:46:00.508Z,2.70
2022-10-18T03:48:27.627Z,2.63
2022-10-18T03:50:54.432Z,2.30
2022-10-18T03:53:21.499Z,2.60
2022-10-18T03:55:56.082Z,2.20
2022-10-18T03:58:23.649Z,2.90
2022-10-18T04:00:52.409Z,2.40
2022-10-18T04:03:21.618Z,2.53
2022-10-18T04:05:49.865Z,2.20
2022-10-18T04:08:18.162Z,2.47
2022-10-18T04:10:45.508Z,2.00
2022-10-18T04:13:12.820Z,2.77
2022-10-18T04:15:39.652Z,2.73
2022-10-18T04:18:06.564Z,2.50
2022-10-18T04:20:33.394Z,2.63
2022-10-18T04:23:00.242Z,3.07
2022-10-18T04:25:28.645Z,3.13
2022-10-18T04:27:56.194Z,2.80
2022-10-18T04:30:23.143Z,2.60
2022-10-18T04:32:50.028Z,2.73
2022-10-18T04:35:16.958Z,2.40
2022-10-18T04:37:43.803Z,2.37
2022-10-18T04:40:11.549Z,2.70
2022-10-18T04:42:38.605Z,2.30
2022-10-18T04:45:06.123Z,2.90
2022-10-18T04:47:33.657Z,2.37
2022-10-18T04:50:00.661Z,2.70
2022-10-18T04:52:27.531Z,2.60
2022-10-18T04:54:54.382Z,3.57
2022-10-18T04:57:21.328Z,2.90
2022-10-18T04:59:48.155Z,2.73
2022-10-18T05:02:14.987Z,3.10
2022-10-18T05:04:41.796Z,3.70
2022-10-18T05:07:08.668Z,3.23
2022-10-18T05:09:35.467Z,2.10
2022-10-18T05:12:02.530Z,8.37
2022-10-18T05:14:29.360Z,8.17
2022-10-18T05:16:56.345Z,8.23
2022-10-18T05:19:23.174Z,5.53
2022-10-18T05:21:50.375Z,5.20
2022-10-18T05:24:17.271Z,4.63
2022-10-18T05:26:44.127Z,3.90
2022-10-18T05:29:11.018Z,3.53
2022-10-18T05:31:38.187Z,3.50
2022-10-18T05:34:05.123Z,4.17
2022-10-18T05:36:32.034Z,3.67
2022-10-18T05:39:01.126Z,3.90
2022-10-18T05:41:31.908Z,5.33
2022-10-18T05:43:58.907Z,4.30
2022-10-18T05:46:25.829Z,4.07
2022-10-18T05:48:52.709Z,3.53
2022-10-18T05:51:19.812Z,2.80
2022-10-18T05:53:46.757Z,3.10
2022-10-18T05:56:14.415Z,2.17
2022-10-18T05:58:42.510Z,2.63
2022-10-18T06:01:10.389Z,2.77
2022-10-18T06:03:37.298Z,2.70
2022-10-18T06:06:08.515Z,2.63
2022-10-18T06:08:36.907Z,2.90
2022-10-18T06:11:16.008Z,2.37
2022-10-18T06:13:49.166Z,2.20
2022-10-18T06:16:20.296Z,1.90
2022-10-18T06:18:53.370Z,2.20
2022-10-18T06:21:22.099Z,1.93
2022-10-18T06:23:55.016Z,2.23
2022-10-18T06:26:22.673Z,2.30
2022-10-18T06:28:49.659Z,1.90
2022-10-18T06:31:17.779Z,1.80
2022-10-18T06:33:45.957Z,2.20
2022-10-18T06:36:19.615Z,2.10
2022-10-18T06:38:46.943Z,2.23
2022-10-18T06:41:14.214Z,3.30
2022-10-18T06:43:41.348Z,3.23
2022-10-18T06:46:09.233Z,4.00
2022-10-18T06:48:38.473Z,4.30
2022-10-18T06:51:07.559Z,3.70
2022-10-18T06:53:44.131Z,3.77
2022-10-18T06:56:20.334Z,4.00
2022-10-18T06:58:47.187Z,3.27
2022-10-18T07:01:17.517Z,3.27
2022-10-18T07:03:46.799Z,3.57
2022-10-18T07:06:18.028Z,3.50
2022-10-18T07:08:46.868Z,4.00
2022-10-18T07:11:26.482Z,3.20
2022-10-18T07:14:02.986Z,3.27
2022-10-18T07:16:31.368Z,3.20
2022-10-18T07:18:58.324Z,3.37
2022-10-18T07:21:26.634Z,3.27
2022-10-18T07:23:53.905Z,4.53
2022-10-18T07:26:30.595Z,4.13
2022-10-18T07:29:04.317Z,4.20
2022-10-18T07:31:31.514Z,4.13
2022-10-18T07:33:58.538Z,4.23
2022-10-18T07:36:26.183Z,3.50
2022-10-18T07:38:53.310Z,3.73
2022-10-18T07:41:21.512Z,4.70
2022-10-18T07:43:51.231Z,5.57
2022-10-18T07:46:20.713Z,6.87
2022-10-18T07:48:48.448Z,5.50
2022-10-18T07:51:16.626Z,5.70
2022-10-18T07:53:43.809Z,6.57
2022-10-18T07:56:21.238Z,6.23
2022-10-18T07:58:52.230Z,5.80
2022-10-18T08:01:21.487Z,5.93
2022-10-18T08:03:48.768Z,5.57
2022-10-18T08:06:18.488Z,6.33
2022-10-18T08:08:46.609Z,5.63
2022-10-18T08:11:20.989Z,5.87
2022-10-18T08:13:48.372Z,5.77
2022-10-18T08:16:20.376Z,5.67
2022-10-18T08:18:47.762Z,6.27
2022-10-18T08:21:16.600Z,7.27
2022-10-18T08:23:43.685Z,7.57
2022-10-18T08:26:16.249Z,6.13
2022-10-18T08:28:53.511Z,6.83
2022-10-18T08:31:26.091Z,6.50
2022-10-18T08:33:56.857Z,6.10
2022-10-18T08:36:23.963Z,6.20
2022-10-18T08:38:50.828Z,6.90
2022-10-18T08:41:46.075Z,7.17
2022-10-18T08:44:30.161Z,6.63
2022-10-18T08:47:15.936Z,6.40
2022-10-18T08:49:50.437Z,7.03
2022-10-18T08:52:49.204Z,6.77
2022-10-18T08:55:27.296Z,6.20
2022-10-18T08:57:54.459Z,7.23
2022-10-18T09:00:24.763Z,6.17
2022-10-18T09:03:14.882Z,6.73
2022-10-18T09:06:08.956Z,6.00
2022-10-18T09:09:32.200Z,6.57
2022-10-18T09:12:06.078Z,5.77
2022-10-18T09:15:01.325Z,6.73
2022-10-18T09:17:50.112Z,6.60
2022-10-18T09:20:47.894Z,6.47
2022-10-18T09:23:46.141Z,6.60
2022-10-18T09:26:20.477Z,6.90
2022-10-18T09:31:59.848Z,6.30
2022-10-18T09:35:01.301Z,6.60
2022-10-18T09:37:34.136Z,6.87
2022-10-18T09:40:24.537Z,5.87
2022-10-18T09:43:12.049Z,5.70
2022-10-18T09:45:45.879Z,6.47
2022-10-18T09:48:41.545Z,6.27
2022-10-18T09:51:23.436Z,6.27
2022-10-18T09:54:12.702Z,7.07
2022-10-18T09:56:57.430Z,6.87
2022-10-18T09:59:45.742Z,6.43
2022-10-18T10:02:19.803Z,6.00
2022-10-18T10:04:47.267Z,6.13
2022-10-18T10:07:20.003Z,6.53
2022-10-18T10:09:56.927Z,6.60
2022-10-18T10:12:33.640Z,6.30
2022-10-18T10:15:28.232Z,6.70
2022-10-18T10:18:07.313Z,6.87
2022-10-18T10:20:46.750Z,6.37
2022-10-18T10:23:36.956Z,7.17
2022-10-18T10:26:34.812Z,7.57
2022-10-18T10:29:01.804Z,6.67
2022-10-18T10:31:33.316Z,6.17
2022-10-18T10:34:15.200Z,6.93
2022-10-18T10:36:51.761Z,6.83
2022-10-18T10:39:21.480Z,7.10
2022-10-18T10:41:58.800Z,7.23
2022-10-18T10:44:35.999Z,7.70
2022-10-18T10:47:04.411Z,6.70
2022-10-18T10:49:47.539Z,6.93
2022-10-18T10:52:37.330Z,6.50
2022-10-18T10:55:34.041Z,5.90
2022-10-18T10:58:01.797Z,6.03
2022-10-18T11:00:45.043Z,6.70
2022-10-18T11:03:28.702Z,6.03
2022-10-18T11:06:00.449Z,5.70
2022-10-18T11:08:36.431Z,4.33
2022-10-18T11:11:23.092Z,4.93
2022-10-18T11:14:21.057Z,4.63
2022-10-18T11:17:07.924Z,3.37
2022-10-18T11:20:09.689Z,3.60
2022-10-18T11:23:08.930Z,3.07
2022-10-18T11:26:17.465Z,3.37
2022-10-18T11:29:43.027Z,3.30
2022-10-18T11:32:39.373Z,3.63
2022-10-18T11:35:35.516Z,3.43
2022-10-18T11:38:32.839Z,3.10
2022-10-18T11:41:30.431Z,3.53
2022-10-18T11:44:04.330Z,3.10
2022-10-18T11:46:51.779Z,3.73
2022-10-18T11:49:53.144Z,3.77
2022-10-18T11:52:48.817Z,3.63
2022-10-18T11:55:42.502Z,4.17
2022-10-18T11:58:34.693Z,4.10
2022-10-18T12:01:28.609Z,3.77
2022-10-18T12:04:17.786Z,4.10
2022-10-18T12:06:50.221Z,4.00
2022-10-18T12:09:41.618Z,4.47
2022-10-18T12:12:21.981Z,5.23
2022-10-18T12:14:55.580Z,4.70
2022-10-18T12:17:46.109Z,4.67
2022-10-18T12:20:29.458Z,4.87
2022-10-18T12:23:17.495Z,5.17
2022-10-18T12:25:53.583Z,5.03
2022-10-18T12:28:32.357Z,5.87
2022-10-18T12:31:08.879Z,5.60
2022-10-18T12:33:42.536Z,6.07
2022-10-18T12:37:06.860Z,5.70
2022-10-18T12:40:15.535Z,5.65
2022-10-18T12:42:50.386Z,5.40
2022-10-18T12:45:34.939Z,5.80
2022-10-18T12:48:25.620Z,6.18
2022-10-18T12:51:06.947Z,6.20
2022-10-18T12:53:35.142Z,6.53
2022-10-18T12:56:30.654Z,6.73
2022-10-18T12:59:15.824Z,6.10
2022-10-18T13:01:54.458Z,7.17
2022-10-18T13:04:27.423Z,6.57
2022-10-18T13:07:30.922Z,9.03
2022-10-18T13:10:36.045Z,7.27
2022-10-18T13:13:39.354Z,6.32
2022-10-18T13:16:55.859Z,5.97
2022-10-18T13:20:24.505Z,6.33
2022-10-18T13:23:30.797Z,6.50
2022-10-18T13:26:17.411Z,6.07
2022-10-18T13:29:09.204Z,6.07
2022-10-18T13:31:53.421Z,6.03
2022-10-18T13:34:34.664Z,6.03
2022-10-18T13:37:11.005Z,5.53
2022-10-18T13:39:40.053Z,5.83
2022-10-18T13:42:15.707Z,5.80
2022-10-18T13:44:44.601Z,7.15
2022-10-18T13:47:33.578Z,6.67
2022-10-18T13:50:31.943Z,7.40
2022-10-18T13:53:04.619Z,8.73
2022-10-18T13:56:00.301Z,7.37
2022-10-18T13:58:49.154Z,8.20
2022-10-18T14:01:59.181Z,7.00
2022-10-18T14:05:10.612Z,6.73
2022-10-18T14:07:45.017Z,6.47
2022-10-18T14:10:43.625Z,7.40
2022-10-18T14:13:24.534Z,7.00
2022-10-18T14:15:57.907Z,7.47
2022-10-18T14:18:40.795Z,8.33
2022-10-18T14:21:21.873Z,8.90
2022-10-18T14:23:51.294Z,8.87
2022-10-18T14:26:20.972Z,9.40
2022-10-18T14:29:07.048Z,10.77
2022-10-18T14:31:35.236Z,11.30
2022-10-18T14:34:03.320Z,12.00
2022-10-18T14:36:42.179Z,11.60
2022-10-18T14:39:22.482Z,12.10
2022-10-18T14:41:55.548Z,11.53
2022-10-18T14:44:30.980Z,11.37
2022-10-18T14:47:21.559Z,12.40
2022-10-18T14:49:50.292Z,12.23
2022-10-18T14:52:26.174Z,12.70
2022-10-18T14:54:56.607Z,11.97
2022-10-18T14:57:30.820Z,13.03
2022-10-18T15:00:29.418Z,15.03
2022-10-18T15:02:56.616Z,13.87
2022-10-18T15:05:26.070Z,12.87
2022-10-18T15:07:53.848Z,13.93
2022-10-18T15:10:28.895Z,13.90
2022-10-18T15:13:09.831Z,14.53
2022-10-18T15:15:38.299Z,12.00
2022-10-18T15:18:08.006Z,13.17
2022-10-18T15:20:42.239Z,13.73
2022-10-18T15:23:24.531Z,14.00
2022-10-18T15:26:05.480Z,13.87
2022-10-18T15:28:49.845Z,13.17
2022-10-18T15:31:31.394Z,14.10
2022-10-18T15:34:24.560Z,13.00
2022-10-18T15:36:54.700Z,13.53
2022-10-18T15:39:30.997Z,15.67
2022-10-18T15:42:01.659Z,13.63
2022-10-18T15:44:48.352Z,13.23
2022-10-18T15:47:21.594Z,13.83
2022-10-18T15:50:01.530Z,13.93
2022-10-18T15:52:38.595Z,13.07
2022-10-18T15:55:30.589Z,14.33
2022-10-18T15:58:36.217Z,13.27
2022-10-18T16:01:04.430Z,13.47
2022-10-18T16:03:36.207Z,12.70
2022-10-18T16:06:12.322Z,14.00
2022-10-18T16:08:51.407Z,11.87
2022-10-18T16:11:24.888Z,11.37
2022-10-18T16:13:56.440Z,11.40
2022-10-18T16:16:28.741Z,10.20
2022-10-18T16:18:56.900Z,11.50
2022-10-18T16:21:31.164Z,9.13
2022-10-18T16:23:58.821Z,10.10
2022-10-18T16:26:27.541Z,10.03
2022-10-18T16:28:55.658Z,11.07
2022-10-18T16:31:26.930Z,10.80
2022-10-18T16:33:55.486Z,9.10
2022-10-18T16:36:32.502Z,9.87
2022-10-18T16:39:04.376Z,9.23
2022-10-18T16:41:31.274Z,10.00
2022-10-18T16:43:58.119Z,8.20
2022-10-18T16:46:29.522Z,8.87
2022-10-18T16:48:56.880Z,8.53
2022-10-18T16:51:24.330Z,8.97
2022-10-18T16:53:53.282Z,8.20
2022-10-18T16:56:25.449Z,8.60
2022-10-18T16:58:52.942Z,9.03
2022-10-18T17:01:22.783Z,8.67
2022-10-18T17:03:53.391Z,9.23
2022-10-18T17:06:30.415Z,8.33
2022-10-18T17:08:58.355Z,8.93
2022-10-18T17:11:28.259Z,10.47
2022-10-18T17:13:56.044Z,10.20
2022-10-18T17:16:33.538Z,8.80
2022-10-18T17:19:06.112Z,8.67
2022-10-18T17:21:33.674Z,10.43
2022-10-18T17:24:05.874Z,7.57
2022-10-18T17:26:34.072Z,8.63
2022-10-18T17:29:08.091Z,7.47
2022-10-18T17:31:35.707Z,9.97
2022-10-18T17:34:03.805Z,11.27
2022-10-18T17:36:32.862Z,10.47
2022-10-18T17:39:00.534Z,10.03
2022-10-18T17:41:27.716Z,10.97
2022-10-18T17:43:55.176Z,10.47
2022-10-18T17:46:23.520Z,10.07
2022-10-18T17:48:50.555Z,10.10
2022-10-18T17:51:18.080Z,7.80
2022-10-18T17:53:46.116Z,8.07
2022-10-18T17:56:14.538Z,7.50
2022-10-18T17:58:43.516Z,8.37
2022-10-18T18:01:13.049Z,8.30
2022-10-18T18:03:41.398Z,8.40
2022-10-18T18:06:31.235Z,8.90
2022-10-18T18:09:01.123Z,7.57
2022-10-18T18:11:29.042Z,9.93
2022-10-18T18:13:56.588Z,9.93
2022-10-18T18:16:27.775Z,9.87
2022-10-18T18:18:57.717Z,10.43
2022-10-18T18:21:26.045Z,10.83
2022-10-18T18:23:53.723Z,11.07
2022-10-18T18:26:21.648Z,9.90
2022-10-18T18:28:49.456Z,8.97
2022-10-18T18:31:23.454Z,9.97
2022-10-18T18:33:56.307Z,8.17
2022-10-18T18:36:28.722Z,8.03
2022-10-18T18:38:57.765Z,8.50
2022-10-18T18:41:26.790Z,8.07
2022-10-18T18:43:57.503Z,8.33
2022-10-18T18:46:26.985Z,7.07
2022-10-18T18:48:54.373Z,8.20
2022-10-18T18:51:22.521Z,8.13
2022-10-18T18:53:49.417Z,9.20
2022-10-18T18:58:53.806Z,8.93
2022-10-18T19:01:26.163Z,8.83
2022-10-18T19:03:56.304Z,7.90
2022-10-18T19:06:33.954Z,7.63
2022-10-18T19:09:04.153Z,7.43
2022-10-18T19:11:40.779Z,11.30
2022-10-18T19:14:09.082Z,10.20
2022-10-18T19:16:45.388Z,8.13
2022-10-18T19:19:21.985Z,7.90
2022-10-18T19:21:58.456Z,9.40
2022-10-18T19:24:28.272Z,7.50
2022-10-18T19:27:02.182Z,7.10
2022-10-18T19:29:35.981Z,8.43
2022-10-18T19:32:08.470Z,9.30
2022-10-18T19:34:36.531Z,10.20
2022-10-18T19:37:04.270Z,8.10
2022-10-18T19:39:34.915Z,6.30
2022-10-18T19:42:06.742Z,9.03
2022-10-18T19:44:36.349Z,11.03
2022-10-18T19:47:06.189Z,10.50
2022-10-18T19:49:33.175Z,9.37
2022-10-18T19:52:00.043Z,8.47
2022-10-18T19:54:27.000Z,8.30
2022-10-18T19:56:54.000Z,8.03
2022-10-18T19:59:22.472Z,9.00
2022-10-18T20:01:49.424Z,9.90
2022-10-18T20:04:16.972Z,9.03
2022-10-18T20:06:44.535Z,11.40
2022-10-18T20:09:16.260Z,10.33
2022-10-18T20:11:46.584Z,8.33
2022-10-18T20:14:13.426Z,9.13
2022-10-18T20:16:40.266Z,9.03
2022-10-18T20:19:08.154Z,7.83
2022-10-18T20:21:36.189Z,9.17
2022-10-18T20:24:07.396Z,7.73
2022-10-18T20:26:35.794Z,7.97
2022-10-18T20:29:04.305Z,8.57
2022-10-18T20:31:35.524Z,7.30
2022-10-18T20:34:10.307Z,9.77
2022-10-18T20:36:37.809Z,10.77
2022-10-18T20:39:05.975Z,10.57
2022-10-18T20:41:37.897Z,10.60
2022-10-18T20:44:09.716Z,8.40
2022-10-18T20:46:38.166Z,9.07
2022-10-18T20:49:07.062Z,10.90
2022-10-18T20:51:34.986Z,9.60
2022-10-18T20:56:34.266Z,10.07
2022-10-18T20:59:01.942Z,10.07
2022-10-18T21:01:32.410Z,9.17
2022-10-18T21:04:03.926Z,8.17
2022-10-18T21:06:35.254Z,7.30
2022-10-18T21:09:09.073Z,7.93
2022-10-18T21:11:40.132Z,7.70
2022-10-18T21:14:11.968Z,7.77
2022-10-18T21:16:39.290Z,6.83
2022-10-18T21:19:26.914Z,6.73
2022-10-18T21:21:57.488Z,7.53
2022-10-18T21:24:25.867Z,8.03
2022-10-18T21:26:52.833Z,7.57
2022-10-18T21:29:22.552Z,8.50
2022-10-18T21:31:55.863Z,7.87
2022-10-18T21:34:22.930Z,6.87
2022-10-18T21:36:49.751Z,9.17
2022-10-18T21:39:20.612Z,8.87
2022-10-18T21:41:47.895Z,7.67
2022-10-18T21:44:16.110Z,8.07
2022-10-18T21:46:44.135Z,8.43
2022-10-18T21:49:11.644Z,8.80
2022-10-18T21:51:39.684Z,10.10
2022-10-18T21:54:12.544Z,8.10
2022-10-18T21:56:39.897Z,7.33
2022-10-18T21:59:07.418Z,7.43
2022-10-18T22:01:37.362Z,7.87
2022-10-18T22:04:16.163Z,8.43
2022-10-18T22:06:43.015Z,7.83
2022-10-18T22:09:09.892Z,6.90
2022-10-18T22:11:48.614Z,7.70
2022-10-18T22:14:15.699Z,8.33
2022-10-18T22:16:42.574Z,8.37
2022-10-18T22:19:09.640Z,7.97
2022-10-18T22:21:36.546Z,8.70
2022-10-18T22:24:09.137Z,8.37
2022-10-18T22:26:39.993Z,7.53
2022-10-18T22:29:19.438Z,7.70
2022-10-18T22:31:50.235Z,6.17
2022-10-18T22:34:21.683Z,7.47
2022-10-18T22:36:49.029Z,6.97
2022-10-18T22:39:17.077Z,7.93
2022-10-18T22:41:44.544Z,7.03
2022-10-18T22:44:14.335Z,6.90
2022-10-18T22:46:42.453Z,6.10
2022-10-18T22:49:09.460Z,7.17
2022-10-18T22:51:36.337Z,6.77
2022-10-18T22:54:03.790Z,6.80
2022-10-18T22:56:30.651Z,5.43
2022-10-18T22:58:57.734Z,6.20
2022-10-18T23:01:25.247Z,6.43
2022-10-18T23:03:55.205Z,7.97
2022-10-18T23:06:25.484Z,7.27
2022-10-18T23:08:55.396Z,7.27
2022-10-18T23:11:23.205Z,7.10
2022-10-18T23:13:50.755Z,5.10
2022-10-18T23:16:18.787Z,5.87
2022-10-18T23:18:51.739Z,7.43
2022-10-18T23:21:20.053Z,6.27
2022-10-18T23:23:47.351Z,6.00
2022-10-18T23:26:18.793Z,7.20
2022-10-18T23:28:48.448Z,5.50
2022-10-18T23:31:20.933Z,6.23
2022-10-18T23:33:50.422Z,5.37
2022-10-18T23:36:18.226Z,6.63
2022-10-18T23:38:45.533Z,6.27
2022-10-18T23:41:14.958Z,5.80
2022-10-18T23:43:43.255Z,6.07
2022-10-18T23:46:11.315Z,5.70
2022-10-18T23:48:38.582Z,6.33
2022-10-18T23:51:06.338Z,6.33
2022-10-18T23:53:33.830Z,4.23
2022-10-18T23:56:06.357Z,5.53
2022-10-18T23:58:35.754Z,5.40
